sensor_id;sensor_type;location;lat;lon;timestamp;pressure;altitude;pressure_sealevel;temperature;humidity
55914;BME280;58179;48.776;9.124;2024-03-02T00:00:36;96209.94;;;4.58;100.00
55914;BME280;58179;48.776;9.124;2024-03-02T00:03:03;96209.69;;;4.59;100.00
55914;BME280;58179;48.776;9.124;2024-03-02T00:05:30;96216.47;;;4.55;100.00
55914;BME280;58179;48.776;9.124;2024-03-02T00:07:57;96212.25;;;4.54;100.00
55914;BME280;58179;48.776;9.124;2024-03-02T00:10:26;96205.41;;;4.53;100.00
55914;BME280;58179;48.776;9.124;2024-03-02T00:12:55;96210.66;;;4.53;100.00
55914;BME280;58179;48.776;9.124;2024-03-02T00:15:41;96208.03;;;4.53;100.00
55914;BME280;58179;48.776;9.124;2024-03-02T00:18:12;96214.31;;;4.52;100.00
55914;BME280;58179;48.776;9.124;2024-03-02T00:20:40;96203.28;;;4.50;100.00
55914;BME280;58179;48.776;9.124;2024-03-02T00:23:08;96205.66;;;4.52;100.00
55914;BME280;58179;48.776;9.124;2024-03-02T00:25:39;96211.16;;;4.50;100.00
55914;BME280;58179;48.776;9.124;2024-03-02T00:28:13;96210.66;;;4.53;100.00
55914;BME280;58179;48.776;9.124;2024-03-02T00:30:54;96215.91;;;4.53;100.00
55914;BME280;58179;48.776;9.124;2024-03-02T00:33:21;96214.06;;;4.54;100.00
55914;BME280;58179;48.776;9.124;2024-03-02T00:35:49;96213.84;;;4.55;100.00
55914;BME280;58179;48.776;9.124;2024-03-02T00:38:16;96214.94;;;4.59;100.00
55914;BME280;58179;48.776;9.124;2024-03-02T00:40:42;96221.91;;;4.71;100.00
55914;BME280;58179;48.776;9.124;2024-03-02T00:43:20;96213.31;;;4.75;100.00
55914;BME280;58179;48.776;9.124;2024-03-02T00:45:52;96215.44;;;4.78;100.00
55914;BME280;58179;48.776;9.124;2024-03-02T00:48:19;96212.84;;;4.78;100.00
55914;BME280;58179;48.776;9.124;2024-03-02T00:50:45;96208.84;;;4.76;100.00
55914;BME280;58179;48.776;9.124;2024-03-02T00:53:14;96212.47;;;4.91;100.00
55914;BME280;58179;48.776;9.124;2024-03-02T00:55:40;96210.81;;;4.85;100.00
55914;BME280;58179;48.776;9.124;2024-03-02T00:58:10;96206.19;;;4.92;100.00
55914;BME280;58179;48.776;9.124;2024-03-02T01:00:36;96207.28;;;4.96;100.00
55914;BME280;58179;48.776;9.124;2024-03-02T01:03:02;96210.63;;;4.92;100.00
55914;BME280;58179;48.776;9.124;2024-03-02T01:05:29;96213.25;;;4.92;100.00
55914;BME280;58179;48.776;9.124;2024-03-02T01:07:56;96215.03;;;4.86;100.00
55914;BME280;58179;48.776;9.124;2024-03-02T01:10:23;96218.69;;;4.85;100.00
55914;BME280;58179;48.776;9.124;2024-03-02T01:12:49;96214.25;;;4.86;100.00
55914;BME280;58179;48.776;9.124;2024-03-02T01:15:15;96212.84;;;4.78;100.00
55914;BME280;58179;48.776;9.124;2024-03-02T01:17:41;96204.63;;;4.75;100.00
55914;BME280;58179;48.776;9.124;2024-03-02T01:20:09;96203.06;;;4.74;100.00
55914;BME280;58179;48.776;9.124;2024-03-02T01:22:35;96212.44;;;4.70;100.00
55914;BME280;58179;48.776;9.124;2024-03-02T01:25:01;96204.75;;;4.63;100.00
55914;BME280;58179;48.776;9.124;2024-03-02T01:27:29;96216.00;;;4.58;100.00
55914;BME280;58179;48.776;9.124;2024-03-02T01:29:55;96212.72;;;4.51;100.00
55914;BME280;58179;48.776;9.124;2024-03-02T01:32:21;96210.75;;;4.42;100.00
55914;BME280;58179;48.776;9.124;2024-03-02T01:34:47;96215.63;;;4.33;100.00
55914;BME280;58179;48.776;9.124;2024-03-02T01:37:13;96222.06;;;4.25;100.00
55914;BME280;58179;48.776;9.124;2024-03-02T01:39:40;96215.63;;;4.16;100.00
55914;BME280;58179;48.776;9.124;2024-03-02T01:42:06;96214.44;;;4.07;100.00
55914;BME280;58179;48.776;9.124;2024-03-02T01:44:34;96215.16;;;4.03;100.00
55914;BME280;58179;48.776;9.124;2024-03-02T01:47:00;96214.44;;;3.91;100.00
55914;BME280;58179;48.776;9.124;2024-03-02T01:49:26;96216.97;;;3.85;100.00
55914;BME280;58179;48.776;9.124;2024-03-02T01:51:53;96216.56;;;3.77;100.00
55914;BME280;58179;48.776;9.124;2024-03-02T01:54:19;96210.78;;;3.75;100.00
55914;BME280;58179;48.776;9.124;2024-03-02T01:56:45;96215.38;;;3.68;100.00
55914;BME280;58179;48.776;9.124;2024-03-02T01:59:11;96212.34;;;3.59;100.00
55914;BME280;58179;48.776;9.124;2024-03-02T02:01:40;96214.84;;;3.54;100.00
55914;BME280;58179;48.776;9.124;2024-03-02T02:04:06;96216.94;;;3.52;100.00
55914;BME280;58179;48.776;9.124;2024-03-02T02:06:33;96208.44;;;3.45;100.00
55914;BME280;58179;48.776;9.124;2024-03-02T02:08:59;96208.09;;;3.41;100.00
55914;BME280;58179;48.776;9.124;2024-03-02T02:11:25;96203.66;;;3.42;100.00
55914;BME280;58179;48.776;9.124;2024-03-02T02:13:51;96197.31;;;3.38;100.00
55914;BME280;58179;48.776;9.124;2024-03-02T02:16:17;96186.59;;;3.39;100.00
55914;BME280;58179;48.776;9.124;2024-03-02T02:18:45;96190.94;;;3.34;100.00
55914;BME280;58179;48.776;9.124;2024-03-02T02:21:11;96194.94;;;3.36;100.00
55914;BME280;58179;48.776;9.124;2024-03-02T02:23:38;96193.78;;;3.32;100.00
55914;BME280;58179;48.776;9.124;2024-03-02T02:26:06;96192.47;;;3.30;100.00
55914;BME280;58179;48.776;9.124;2024-03-02T02:28:32;96191.31;;;3.26;100.00
55914;BME280;58179;48.776;9.124;2024-03-02T02:30:58;96191.03;;;3.22;100.00
55914;BME280;58179;48.776;9.124;2024-03-02T02:33:26;96182.59;;;3.20;100.00
55914;BME280;58179;48.776;9.124;2024-03-02T02:35:52;96191.81;;;3.23;100.00
55914;BME280;58179;48.776;9.124;2024-03-02T02:38:18;96185.78;;;3.22;100.00
55914;BME280;58179;48.776;9.124;2024-03-02T02:40:47;96177.56;;;3.30;100.00
55914;BME280;58179;48.776;9.124;2024-03-02T02:43:13;96172.56;;;3.29;100.00
55914;BME280;58179;48.776;9.124;2024-03-02T02:45:40;96164.22;;;3.32;100.00
55914;BME280;58179;48.776;9.124;2024-03-02T02:48:06;96161.63;;;3.32;100.00
55914;BME280;58179;48.776;9.124;2024-03-02T02:50:32;96159.72;;;3.27;100.00
55914;BME280;58179;48.776;9.124;2024-03-02T02:52:59;96163.94;;;3.28;100.00
55914;BME280;58179;48.776;9.124;2024-03-02T02:55:25;96163.28;;;3.21;100.00
55914;BME280;58179;48.776;9.124;2024-03-02T02:57:52;96176.00;;;3.18;100.00
55914;BME280;58179;48.776;9.124;2024-03-02T03:00:19;96174.47;;;3.05;100.00
55914;BME280;58179;48.776;9.124;2024-03-02T03:02:47;96167.44;;;3.05;100.00
55914;BME280;58179;48.776;9.124;2024-03-02T03:05:15;96168.69;;;3.03;100.00
55914;BME280;58179;48.776;9.124;2024-03-02T03:07:42;96169.97;;;3.00;100.00
55914;BME280;58179;48.776;9.124;2024-03-02T03:10:08;96171.22;;;2.98;100.00
55914;BME280;58179;48.776;9.124;2024-03-02T03:12:35;96173.03;;;2.97;100.00
55914;BME280;58179;48.776;9.124;2024-03-02T03:15:03;96174.13;;;3.01;100.00
55914;BME280;58179;48.776;9.124;2024-03-02T03:17:33;96175.72;;;3.02;100.00
55914;BME280;58179;48.776;9.124;2024-03-02T03:19:59;96177.00;;;3.00;100.00
55914;BME280;58179;48.776;9.124;2024-03-02T03:22:26;96180.63;;;2.99;100.00
55914;BME280;58179;48.776;9.124;2024-03-02T03:24:53;96175.88;;;2.96;100.00
55914;BME280;58179;48.776;9.124;2024-03-02T03:27:19;96171.44;;;2.96;100.00
55914;BME280;58179;48.776;9.124;2024-03-02T03:29:48;96177.38;;;2.92;100.00
55914;BME280;58179;48.776;9.124;2024-03-02T03:32:15;96177.03;;;2.88;100.00
55914;BME280;58179;48.776;9.124;2024-03-02T03:34:42;96179.06;;;2.86;100.00
55914;BME280;58179;48.776;9.124;2024-03-02T03:37:09;96170.91;;;2.83;100.00
55914;BME280;58179;48.776;9.124;2024-03-02T03:39:35;96177.97;;;2.82;100.00
55914;BME280;58179;48.776;9.124;2024-03-02T03:42:02;96177.16;;;2.82;100.00
55914;BME280;58179;48.776;9.124;2024-03-02T03:44:28;96166.13;;;2.80;100.00
55914;BME280;58179;48.776;9.124;2024-03-02T03:46:54;96171.38;;;2.80;100.00
55914;BME280;58179;48.776;9.124;2024-03-02T03:49:22;96170.03;;;2.77;100.00
55914;BME280;58179;48.776;9.124;2024-03-02T03:51:48;96165.47;;;2.72;100.00
55914;BME280;58179;48.776;9.124;2024-03-02T03:54:14;96168.75;;;2.80;100.00
55914;BME280;58179;48.776;9.124;2024-03-02T03:56:40;96177.16;;;2.82;100.00
55914;BME280;58179;48.776;9.124;2024-03-02T03:59:06;96182.84;;;2.79;100.00
55914;BME280;58179;48.776;9.124;2024-03-02T04:01:33;96180.00;;;2.80;100.00
55914;BME280;58179;48.776;9.124;2024-03-02T04:03:59;96179.47;;;2.78;100.00
55914;BME280;58179;48.776;9.124;2024-03-02T04:06:29;96176.94;;;2.71;100.00
55914;BME280;58179;48.776;9.124;2024-03-02T04:08:55;96181.03;;;2.79;100.00
55914;BME280;58179;48.776;9.124;2024-03-02T04:11:21;96183.41;;;2.81;100.00
55914;BME280;58179;48.776;9.124;2024-03-02T04:13:48;96173.31;;;2.84;100.00
55914;BME280;58179;48.776;9.124;2024-03-02T04:16:14;96175.13;;;2.84;100.00
55914;BME280;58179;48.776;9.124;2024-03-02T04:18:40;96178.53;;;2.84;100.00
55914;BME280;58179;48.776;9.124;2024-03-02T04:21:07;96176.22;;;2.88;100.00
55914;BME280;58179;48.776;9.124;2024-03-02T04:23:35;96171.22;;;2.86;100.00
55914;BME280;58179;48.776;9.124;2024-03-02T04:26:01;96174.09;;;2.85;100.00
55914;BME280;58179;48.776;9.124;2024-03-02T04:28:27;96174.91;;;2.85;100.00
55914;BME280;58179;48.776;9.124;2024-03-02T04:30:53;96170.13;;;2.82;100.00
55914;BME280;58179;48.776;9.124;2024-03-02T04:33:20;96172.66;;;2.77;100.00
55914;BME280;58179;48.776;9.124;2024-03-02T04:35:46;96177.75;;;2.72;100.00
55914;BME280;58179;48.776;9.124;2024-03-02T04:38:12;96180.63;;;2.70;100.00
55914;BME280;58179;48.776;9.124;2024-03-02T04:40:40;96179.91;;;2.75;100.00
55914;BME280;58179;48.776;9.124;2024-03-02T04:43:06;96182.75;;;2.73;100.00
55914;BME280;58179;48.776;9.124;2024-03-02T04:45:32;96175.13;;;2.72;100.00
55914;BME280;58179;48.776;9.124;2024-03-02T04:47:59;96171.84;;;2.77;100.00
55914;BME280;58179;48.776;9.124;2024-03-02T04:50:25;96170.03;;;2.77;100.00
55914;BME280;58179;48.776;9.124;2024-03-02T04:52:51;96166.50;;;2.71;100.00
55914;BME280;58179;48.776;9.124;2024-03-02T04:55:17;96173.44;;;2.66;100.00
55914;BME280;58179;48.776;9.124;2024-03-02T04:57:54;96179.91;;;2.63;100.00
55914;BME280;58179;48.776;9.124;2024-03-02T05:00:21;96180.41;;;2.60;100.00
55914;BME280;58179;48.776;9.124;2024-03-02T05:02:47;96179.81;;;2.58;100.00
55914;BME280;58179;48.776;9.124;2024-03-02T05:05:13;96177.22;;;2.58;100.00
55914;BME280;58179;48.776;9.124;2024-03-02T05:07:41;96180.31;;;2.55;100.00
55914;BME280;58179;48.776;9.124;2024-03-02T05:10:11;96186.28;;;2.56;100.00
55914;BME280;58179;48.776;9.124;2024-03-02T05:12:40;96186.28;;;2.56;100.00
55914;BME280;58179;48.776;9.124;2024-03-02T05:15:23;96179.59;;;2.60;100.00
55914;BME280;58179;48.776;9.124;2024-03-02T05:17:50;96180.16;;;2.62;100.00
55914;BME280;58179;48.776;9.124;2024-03-02T05:20:16;96182.00;;;2.61;100.00
55914;BME280;58179;48.776;9.124;2024-03-02T05:22:43;96185.63;;;2.60;100.00
55914;BME280;58179;48.776;9.124;2024-03-02T05:25:09;96183.81;;;2.61;100.00
55914;BME280;58179;48.776;9.124;2024-03-02T05:27:38;96184.59;;;2.61;100.00
55914;BME280;58179;48.776;9.124;2024-03-02T05:30:05;96194.13;;;2.56;100.00
55914;BME280;58179;48.776;9.124;2024-03-02T05:32:33;96190.41;;;2.52;100.00
55914;BME280;58179;48.776;9.124;2024-03-02T05:34:59;96185.16;;;2.52;100.00
55914;BME280;58179;48.776;9.124;2024-03-02T05:37:26;96192.78;;;2.53;100.00
55914;BME280;58179;48.776;9.124;2024-03-02T05:39:52;96190.84;;;2.49;100.00
55914;BME280;58179;48.776;9.124;2024-03-02T05:42:18;96191.09;;;2.47;100.00
55914;BME280;58179;48.776;9.124;2024-03-02T05:44:48;96189.28;;;2.48;100.00
55914;BME280;58179;48.776;9.124;2024-03-02T05:47:20;96190.03;;;2.48;100.00
55914;BME280;58179;48.776;9.124;2024-03-02T05:49:48;96199.25;;;2.51;100.00
55914;BME280;58179;48.776;9.124;2024-03-02T05:52:14;96206.28;;;2.50;100.00
55914;BME280;58179;48.776;9.124;2024-03-02T05:54:40;96200.84;;;2.52;100.00
55914;BME280;58179;48.776;9.124;2024-03-02T05:57:06;96203.56;;;2.57;100.00
55914;BME280;58179;48.776;9.124;2024-03-02T06:00:06;96203.09;;;2.60;100.00
55914;BME280;58179;48.776;9.124;2024-03-02T06:02:34;96207.09;;;2.62;100.00
55914;BME280;58179;48.776;9.124;2024-03-02T06:05:02;96195.38;;;2.65;100.00
55914;BME280;58179;48.776;9.124;2024-03-02T06:07:30;96200.59;;;2.65;100.00
55914;BME280;58179;48.776;9.124;2024-03-02T06:09:56;96197.44;;;2.63;100.00
55914;BME280;58179;48.776;9.124;2024-03-02T06:12:22;96198.19;;;2.63;100.00
55914;BME280;58179;48.776;9.124;2024-03-02T06:14:48;96197.44;;;2.63;100.00
55914;BME280;58179;48.776;9.124;2024-03-02T06:17:15;96204.00;;;2.65;100.00
55914;BME280;58179;48.776;9.124;2024-03-02T06:19:41;96205.59;;;2.66;100.00
55914;BME280;58179;48.776;9.124;2024-03-02T06:22:08;96202.53;;;2.69;100.00
55914;BME280;58179;48.776;9.124;2024-03-02T06:24:36;96207.50;;;2.71;100.00
55914;BME280;58179;48.776;9.124;2024-03-02T06:27:03;96207.06;;;2.74;100.00
55914;BME280;58179;48.776;9.124;2024-03-02T06:29:32;96215.91;;;2.85;100.00
55914;BME280;58179;48.776;9.124;2024-03-02T06:31:58;96218.38;;;2.91;100.00
55914;BME280;58179;48.776;9.124;2024-03-02T06:34:24;96211.22;;;2.98;100.00
55914;BME280;58179;48.776;9.124;2024-03-02T06:36:50;96222.91;;;3.07;100.00
55914;BME280;58179;48.776;9.124;2024-03-02T06:39:18;96215.38;;;3.11;100.00
55914;BME280;58179;48.776;9.124;2024-03-02T06:41:44;96224.56;;;3.14;100.00
55914;BME280;58179;48.776;9.124;2024-03-02T06:44:10;96229.22;;;3.23;100.00
55914;BME280;58179;48.776;9.124;2024-03-02T06:46:36;96226.47;;;3.30;100.00
55914;BME280;58179;48.776;9.124;2024-03-02T06:49:02;96228.81;;;3.31;100.00
55914;BME280;58179;48.776;9.124;2024-03-02T06:51:30;96230.28;;;3.39;100.00
55914;BME280;58179;48.776;9.124;2024-03-02T06:53:56;96231.41;;;3.43;100.00
55914;BME280;58179;48.776;9.124;2024-03-02T06:56:24;96226.03;;;3.49;100.00
55914;BME280;58179;48.776;9.124;2024-03-02T06:58:50;96220.00;;;3.49;100.00
55914;BME280;58179;48.776;9.124;2024-03-02T07:01:16;96221.81;;;3.48;100.00
55914;BME280;58179;48.776;9.124;2024-03-02T07:03:42;96220.19;;;3.59;100.00
55914;BME280;58179;48.776;9.124;2024-03-02T07:06:08;96215.75;;;3.60;100.00
55914;BME280;58179;48.776;9.124;2024-03-02T07:08:35;96232.78;;;3.62;100.00
55914;BME280;58179;48.776;9.124;2024-03-02T07:11:01;96220.75;;;3.78;100.00
55914;BME280;58179;48.776;9.124;2024-03-02T07:13:29;96223.88;;;3.92;100.00
55914;BME280;58179;48.776;9.124;2024-03-02T07:15:55;96228.31;;;3.91;100.00
55914;BME280;58179;48.776;9.124;2024-03-02T07:18:30;96225.84;;;4.01;100.00
55914;BME280;58179;48.776;9.124;2024-03-02T07:20:56;96226.19;;;4.05;100.00
55914;BME280;58179;48.776;9.124;2024-03-02T07:23:25;96231.66;;;4.20;100.00
55914;BME280;58179;48.776;9.124;2024-03-02T07:25:53;96234.91;;;4.27;100.00
55914;BME280;58179;48.776;9.124;2024-03-02T07:28:22;96235.84;;;4.38;100.00
55914;BME280;58179;48.776;9.124;2024-03-02T07:30:58;96236.78;;;4.48;100.00
55914;BME280;58179;48.776;9.124;2024-03-02T07:33:24;96225.59;;;4.53;100.00
55914;BME280;58179;48.776;9.124;2024-03-02T07:35:51;96228.19;;;4.53;100.00
55914;BME280;58179;48.776;9.124;2024-03-02T07:38:17;96227.34;;;4.47;100.00
55914;BME280;58179;48.776;9.124;2024-03-02T07:40:43;96227.03;;;4.44;100.00
55914;BME280;58179;48.776;9.124;2024-03-02T07:43:09;96237.84;;;4.31;100.00
55914;BME280;58179;48.776;9.124;2024-03-02T07:45:36;96235.22;;;4.31;100.00
55914;BME280;58179;48.776;9.124;2024-03-02T07:48:04;96240.22;;;4.32;100.00
55914;BME280;58179;48.776;9.124;2024-03-02T07:50:30;96239.34;;;4.43;100.00
55914;BME280;58179;48.776;9.124;2024-03-02T07:52:56;96236.81;;;4.32;100.00
55914;BME280;58179;48.776;9.124;2024-03-02T07:55:22;96246.81;;;4.35;100.00
55914;BME280;58179;48.776;9.124;2024-03-02T07:57:51;96241.47;;;4.29;100.00
55914;BME280;58179;48.776;9.124;2024-03-02T08:00:17;96241.75;;;4.28;100.00
55914;BME280;58179;48.776;9.124;2024-03-02T08:02:43;96244.44;;;4.33;100.00
55914;BME280;58179;48.776;9.124;2024-03-02T08:05:11;96238.63;;;4.31;100.00
55914;BME280;58179;48.776;9.124;2024-03-02T08:07:38;96236.50;;;4.28;100.00
55914;BME280;58179;48.776;9.124;2024-03-02T08:10:05;96233.84;;;4.45;100.00
55914;BME280;58179;48.776;9.124;2024-03-02T08:12:31;96231.50;;;4.43;100.00
55914;BME280;58179;48.776;9.124;2024-03-02T08:14:57;96232.81;;;4.46;100.00
55914;BME280;58179;48.776;9.124;2024-03-02T08:17:24;96236.31;;;4.51;100.00
55914;BME280;58179;48.776;9.124;2024-03-02T08:19:50;96230.19;;;4.62;100.00
55914;BME280;58179;48.776;9.124;2024-03-02T08:22:17;96230.25;;;4.67;100.00
55914;BME280;58179;48.776;9.124;2024-03-02T08:24:43;96225.09;;;4.73;100.00
55914;BME280;58179;48.776;9.124;2024-03-02T08:27:09;96227.63;;;4.89;100.00
55914;BME280;58179;48.776;9.124;2024-03-02T08:29:36;96220.31;;;4.91;100.00
55914;BME280;58179;48.776;9.124;2024-03-02T08:32:02;96216.00;;;5.02;100.00
55914;BME280;58179;48.776;9.124;2024-03-02T08:34:28;96225.19;;;5.26;100.00
55914;BME280;58179;48.776;9.124;2024-03-02T08:36:55;96216.53;;;5.79;100.00
55914;BME280;58179;48.776;9.124;2024-03-02T08:39:22;96224.44;;;6.06;100.00
55914;BME280;58179;48.776;9.124;2024-03-02T08:41:49;96226.97;;;6.28;100.00
55914;BME280;58179;48.776;9.124;2024-03-02T08:44:16;96215.75;;;6.38;100.00
55914;BME280;58179;48.776;9.124;2024-03-02T08:46:42;96215.38;;;6.61;100.00
55914;BME280;58179;48.776;9.124;2024-03-02T08:49:08;96224.06;;;7.19;100.00
55914;BME280;58179;48.776;9.124;2024-03-02T08:51:34;96227.59;;;7.55;100.00
55914;BME280;58179;48.776;9.124;2024-03-02T08:54:01;96218.13;;;7.59;100.00
55914;BME280;58179;48.776;9.124;2024-03-02T08:56:28;96205.25;;;7.83;100.00
55914;BME280;58179;48.776;9.124;2024-03-02T08:58:54;96211.34;;;8.08;100.00
55914;BME280;58179;48.776;9.124;2024-03-02T09:01:21;96224.25;;;8.71;100.00
55914;BME280;58179;48.776;9.124;2024-03-02T09:03:47;96219.38;;;9.08;100.00
55914;BME280;58179;48.776;9.124;2024-03-02T09:06:15;96210.28;;;9.35;100.00
55914;BME280;58179;48.776;9.124;2024-03-02T09:08:46;96206.78;;;9.49;100.00
55914;BME280;58179;48.776;9.124;2024-03-02T09:11:12;96198.09;;;9.44;100.00
55914;BME280;58179;48.776;9.124;2024-03-02T09:13:40;96194.34;;;9.50;100.00
55914;BME280;58179;48.776;9.124;2024-03-02T09:16:07;96197.44;;;10.01;100.00
55914;BME280;58179;48.776;9.124;2024-03-02T09:18:36;96200.06;;;9.67;100.00
55914;BME280;58179;48.776;9.124;2024-03-02T09:21:03;96191.78;;;9.79;100.00
55914;BME280;58179;48.776;9.124;2024-03-02T09:23:30;96184.06;;;9.87;100.00
55914;BME280;58179;48.776;9.124;2024-03-02T09:25:56;96191.47;;;10.24;100.00
55914;BME280;58179;48.776;9.124;2024-03-02T09:28:22;96181.66;;;10.30;100.00
55914;BME280;58179;48.776;9.124;2024-03-02T09:30:50;96173.72;;;10.30;100.00
55914;BME280;58179;48.776;9.124;2024-03-02T09:33:16;96172.69;;;10.78;100.00
55914;BME280;58179;48.776;9.124;2024-03-02T09:35:42;96170.13;;;10.97;100.00
55914;BME280;58179;48.776;9.124;2024-03-02T09:38:08;96177.94;;;11.50;100.00
55914;BME280;58179;48.776;9.124;2024-03-02T09:40:34;96173.50;;;11.83;100.00
55914;BME280;58179;48.776;9.124;2024-03-02T09:43:01;96160.22;;;12.01;100.00
55914;BME280;58179;48.776;9.124;2024-03-02T09:45:30;96158.78;;;12.83;100.00
55914;BME280;58179;48.776;9.124;2024-03-02T09:47:58;96162.94;;;13.16;100.00
55914;BME280;58179;48.776;9.124;2024-03-02T09:50:25;96154.69;;;13.89;100.00
55914;BME280;58179;48.776;9.124;2024-03-02T09:52:53;96142.94;;;14.35;100.00
55914;BME280;58179;48.776;9.124;2024-03-02T09:55:21;96141.44;;;14.82;100.00
55914;BME280;58179;48.776;9.124;2024-03-02T09:57:47;96137.38;;;15.50;100.00
55914;BME280;58179;48.776;9.124;2024-03-02T10:00:16;96136.38;;;16.49;100.00
55914;BME280;58179;48.776;9.124;2024-03-02T10:02:43;96143.41;;;16.62;100.00
55914;BME280;58179;48.776;9.124;2024-03-02T10:05:11;96146.81;;;17.68;100.00
55914;BME280;58179;48.776;9.124;2024-03-02T10:07:40;96144.38;;;17.55;100.00
55914;BME280;58179;48.776;9.124;2024-03-02T10:10:15;96137.31;;;18.12;100.00
55914;BME280;58179;48.776;9.124;2024-03-02T10:12:42;96143.13;;;17.52;100.00
55914;BME280;58179;48.776;9.124;2024-03-02T10:15:08;96142.13;;;18.52;100.00
55914;BME280;58179;48.776;9.124;2024-03-02T10:17:35;96142.28;;;18.35;100.00
55914;BME280;58179;48.776;9.124;2024-03-02T10:20:23;96130.69;;;18.88;100.00
55914;BME280;58179;48.776;9.124;2024-03-02T10:22:50;96132.13;;;18.73;100.00
55914;BME280;58179;48.776;9.124;2024-03-02T10:25:29;96141.34;;;17.86;100.00
55914;BME280;58179;48.776;9.124;2024-03-02T10:27:58;96132.50;;;19.08;98.90
55914;BME280;58179;48.776;9.124;2024-03-02T10:30:25;96118.00;;;18.40;100.00
55914;BME280;58179;48.776;9.124;2024-03-02T10:32:51;96123.66;;;18.83;100.00
55914;BME280;58179;48.776;9.124;2024-03-02T10:35:18;96115.47;;;19.41;100.00
55914;BME280;58179;48.776;9.124;2024-03-02T10:37:47;96124.66;;;19.92;100.00
55914;BME280;58179;48.776;9.124;2024-03-02T10:40:14;96119.22;;;20.04;100.00
55914;BME280;58179;48.776;9.124;2024-03-02T10:42:42;96115.72;;;20.75;100.00
55914;BME280;58179;48.776;9.124;2024-03-02T10:45:10;96116.97;;;20.34;100.00
55914;BME280;58179;48.776;9.124;2024-03-02T10:47:38;96118.25;;;19.96;100.00
55914;BME280;58179;48.776;9.124;2024-03-02T10:50:05;96109.31;;;19.52;100.00
55914;BME280;58179;48.776;9.124;2024-03-02T10:52:35;96114.03;;;19.19;100.00
55914;BME280;58179;48.776;9.124;2024-03-02T10:55:03;96105.91;;;18.79;95.33
55914;BME280;58179;48.776;9.124;2024-03-02T10:57:40;96100.53;;;18.79;99.56
55914;BME280;58179;48.776;9.124;2024-03-02T11:00:11;96093.88;;;19.61;100.00
55914;BME280;58179;48.776;9.124;2024-03-02T11:02:42;96089.25;;;19.74;100.00
55914;BME280;58179;48.776;9.124;2024-03-02T11:05:12;96092.25;;;20.00;100.00
55914;BME280;58179;48.776;9.124;2024-03-02T11:07:40;96098.28;;;19.82;100.00
55914;BME280;58179;48.776;9.124;2024-03-02T11:10:09;96090.31;;;20.13;91.38
55914;BME280;58179;48.776;9.124;2024-03-02T11:12:38;96086.75;;;19.81;90.77
55914;BME280;58179;48.776;9.124;2024-03-02T11:15:10;96090.53;;;19.40;94.89
55914;BME280;58179;48.776;9.124;2024-03-02T11:17:38;96075.47;;;19.11;96.29
55914;BME280;58179;48.776;9.124;2024-03-02T11:20:08;96070.63;;;19.41;99.50
55914;BME280;58179;48.776;9.124;2024-03-02T11:22:35;96068.00;;;19.69;100.00
55914;BME280;58179;48.776;9.124;2024-03-02T11:25:02;96060.22;;;19.52;96.70
55914;BME280;58179;48.776;9.124;2024-03-02T11:28:01;96060.34;;;19.83;100.00
55914;BME280;58179;48.776;9.124;2024-03-02T11:30:50;96049.09;;;19.93;95.98
55914;BME280;58179;48.776;9.124;2024-03-02T11:33:23;96053.97;;;19.48;95.31
55914;BME280;58179;48.776;9.124;2024-03-02T11:35:50;96045.44;;;19.58;100.00
55914;BME280;58179;48.776;9.124;2024-03-02T11:38:18;96050.50;;;19.47;93.22
55914;BME280;58179;48.776;9.124;2024-03-02T11:40:45;96039.09;;;20.06;100.00
55914;BME280;58179;48.776;9.124;2024-03-02T11:43:12;96036.31;;;20.97;100.00
55914;BME280;58179;48.776;9.124;2024-03-02T11:45:39;96030.66;;;21.37;92.58
55914;BME280;58179;48.776;9.124;2024-03-02T11:48:11;96031.50;;;21.21;91.35
55914;BME280;58179;48.776;9.124;2024-03-02T11:50:41;96024.00;;;21.31;99.41
55914;BME280;58179;48.776;9.124;2024-03-02T11:53:08;96018.13;;;20.74;91.78
55914;BME280;58179;48.776;9.124;2024-03-02T11:55:36;96020.66;;;20.67;85.72
55914;BME280;58179;48.776;9.124;2024-03-02T11:58:03;96019.44;;;20.49;89.71
55914;BME280;58179;48.776;9.124;2024-03-02T12:00:31;96015.63;;;19.75;81.62
55914;BME280;58179;48.776;9.124;2024-03-02T12:03:01;96007.56;;;19.75;93.91
55914;BME280;58179;48.776;9.124;2024-03-02T12:05:28;96006.59;;;19.67;88.55
55914;BME280;58179;48.776;9.124;2024-03-02T12:07:56;96012.34;;;20.57;83.67
55914;BME280;58179;48.776;9.124;2024-03-02T12:10:23;96005.81;;;20.26;85.58
55914;BME280;58179;48.776;9.124;2024-03-02T12:12:56;96000.69;;;20.53;85.29
55914;BME280;58179;48.776;9.124;2024-03-02T12:15:24;96001.88;;;20.86;89.73
55914;BME280;58179;48.776;9.124;2024-03-02T12:17:54;95991.34;;;21.32;97.28
55914;BME280;58179;48.776;9.124;2024-03-02T12:20:20;95995.94;;;21.32;84.31
55914;BME280;58179;48.776;9.124;2024-03-02T12:22:47;96001.69;;;21.69;93.80
55914;BME280;58179;48.776;9.124;2024-03-02T12:25:13;95985.66;;;21.76;86.62
55914;BME280;58179;48.776;9.124;2024-03-02T12:27:41;95986.25;;;22.08;87.97
55914;BME280;58179;48.776;9.124;2024-03-02T12:30:08;95988.84;;;21.43;79.69
55914;BME280;58179;48.776;9.124;2024-03-02T12:32:36;95974.69;;;21.65;88.62
55914;BME280;58179;48.776;9.124;2024-03-02T12:35:06;95974.97;;;21.79;91.42
55914;BME280;58179;48.776;9.124;2024-03-02T12:37:32;95968.78;;;22.21;89.39
55914;BME280;58179;48.776;9.124;2024-03-02T12:39:59;95969.50;;;22.67;93.14
55914;BME280;58179;48.776;9.124;2024-03-02T12:42:25;95963.75;;;22.95;77.92
55914;BME280;58179;48.776;9.124;2024-03-02T12:44:52;95960.25;;;23.24;72.83
55914;BME280;58179;48.776;9.124;2024-03-02T12:47:23;95965.66;;;23.54;80.49
55914;BME280;58179;48.776;9.124;2024-03-02T12:49:49;95951.03;;;24.33;81.85
55914;BME280;58179;48.776;9.124;2024-03-02T12:52:19;95951.94;;;25.13;87.60
55914;BME280;58179;48.776;9.124;2024-03-02T12:54:45;95947.03;;;25.43;73.36
55914;BME280;58179;48.776;9.124;2024-03-02T12:57:17;95946.84;;;25.00;73.91
55914;BME280;58179;48.776;9.124;2024-03-02T12:59:45;95948.91;;;24.63;66.55